Terminal Aerodrome Forecast
Issued by NWS

Home | Current Version | Previous Version | Text Only | Print | Product List | Glossary On
Versions: 1 2 3 4 5 6 7 8 9 10 11 12 13 14 15
000
FTUS45 KFGZ 261000 AAB
TAFGCN
TAF AMD
KGCN 261054Z 2611/2706 VRB05KT 4SM BR SCT005 OVC012
      TEMPO 2611/2615 1/2SM FG OVC005
     FM261600 32011KT P6SM SCT015 BKN025
     FM261900 33010G17KT P6SM BKN045=

USA.gov is the U.S. government's official web portal to all federal, state and local government web resources and services.